Overview Statistics Trail Chart Weather Telemetry Raw packets
 

This is the latest recevied packets stored in our database for station/object IU0PXN-15. If no packets are shown the sender has not sent any packets the latest 24 hours.

If you compare the raw packets with similar data from other websites it may differ (especially the path), the reason is that we are not collecting packets from the same APRS-IS servers. Each APRS-IS server performes duplicate filtering, and which packet that is considered to be a duplicate may differ depending on which APRS-IS server you receive your data from.

<< 1 2 3 4 >>

1788571496: IU0PXN-15>APRSGW,TCPIP*,qAR,IU0PXN-15:T#859,964.3,26.3,51.8,1012.8,0.0,00000000

1788571496: IU0PXN-15>APRSGW,TCPIP*,qAR,IU0PXN-15:!4132.21N/01353.95E##IU0PXN-15/B=100/A=001411

1788569681: IU0PXN-15>APRSGW,TCPIP*,qAR,IU0PXN-15:T#858,964.4,26.4,51.7,1012.9,0.0,00000000

1788569681: IU0PXN-15>APRSGW,TCPIP*,qAR,IU0PXN-15:!4132.21N/01353.95E##IU0PXN-15/B=100/A=001411

1788567866: IU0PXN-15>APRSGW,TCPIP*,qAR,IU0PXN-15:T#857,964.4,26.4,51.3,1012.9,0.0,00000000

1788567866: IU0PXN-15>APRSGW,TCPIP*,qAR,IU0PXN-15:!4132.21N/01353.95E##IU0PXN-15/B=100/A=001411

1788566053: IU0PXN-15>APRSGW,TCPIP*,qAR,IU0PXN-15:T#856,964.7,26.5,51.3,1013.1,0.0,00000000

1788566053: IU0PXN-15>APRSGW,TCPIP*,qAR,IU0PXN-15:!4132.21N/01353.95E##IU0PXN-15/B=100/A=001411

1788564238: IU0PXN-15>APRSGW,TCPIP*,qAR,IU0PXN-15:T#855,964.8,26.5,50.9,1013.3,0.0,00000000

1788564238: IU0PXN-15>APRSGW,TCPIP*,qAR,IU0PXN-15:!4132.21N/01353.95E##IU0PXN-15/B=100/A=001411

1788562421: IU0PXN-15>APRSGW,TCPIP*,qAR,IU0PXN-15:T#854,964.8,26.6,51.1,1013.3,0.0,00000000

1788562421: IU0PXN-15>APRSGW,TCPIP*,qAR,IU0PXN-15:!4132.21N/01353.95E##IU0PXN-15/B=100/A=001411

1788560606: IU0PXN-15>APRSGW,TCPIP*,qAR,IU0PXN-15:!4132.21N/01353.95E##IU0PXN-15/B=100/A=001411

1788560606: IU0PXN-15>APRSGW,TCPIP*,qAR,IU0PXN-15:T#853,964.9,26.6,50.9,1013.4,0.0,00000000

1788558791: IU0PXN-15>APRSGW,TCPIP*,qAR,IU0PXN-15:T#852,964.8,26.6,50.0,1013.2,0.0,00000000

1788558791: IU0PXN-15>APRSGW,TCPIP*,qAR,IU0PXN-15:!4132.21N/01353.95E##IU0PXN-15/B=100/A=001411

1788556976: IU0PXN-15>APRSGW,TCPIP*,qAR,IU0PXN-15::IU0PXN-15:PARM.Press,Temp.in,Hum,QNH,Temp.out,track,-,-,-,-,-,-,-

1788556976: IU0PXN-15>APRSGW,TCPIP*,qAR,IU0PXN-15:T#851,964.8,26.7,48.7,1013.2,0.0,00000000

1788556976: IU0PXN-15>APRSGW,TCPIP*,qAR,IU0PXN-15::IU0PXN-15:EQNS.0,1,0,0,1,0,0,1,0,0,1,0,0,1,0

1788556976: IU0PXN-15>APRSGW,TCPIP*,qAR,IU0PXN-15::IU0PXN-15:UNIT.hPa,C deg,%,hPa,C deg,Y/N,O/N,O/N,O/N,O/N,O/N,O/N,O/N

1788556976: IU0PXN-15>APRSGW,TCPIP*,qAR,IU0PXN-15:!4132.21N/01353.95E##IU0PXN-15/B=100/A=001411

1788555161: IU0PXN-15>APRSGW,TCPIP*,qAR,IU0PXN-15:T#850,964.8,26.7,47.4,1013.2,0.0,00000000

1788555161: IU0PXN-15>APRSGW,TCPIP*,qAR,IU0PXN-15:!4132.21N/01353.95E##IU0PXN-15/B=100/A=001411

1788553345: IU0PXN-15>APRSGW,TCPIP*,qAR,IU0PXN-15:T#849,965.0,26.8,45.7,1013.4,0.0,00000000

1788553345: IU0PXN-15>APRSGW,TCPIP*,qAR,IU0PXN-15:!4132.21N/01353.95E##IU0PXN-15/B=100/A=001411